Terminal Aerodrome Forecast
Issued by NWS Sterling, VA

Current Version | Previous Version | Graphics & Text | Print | Product List | Glossary On
Versions: 1 2 3 4 5 6 7 8 9 10 11 12 13 14 15 16 17 18 19 20 21 22 23 24 25
508
FTUS41 KLWX 280531
TAFIAD
TAF
KIAD 280531Z 2806/2912 00000KT 6SM BR BKN090
     FM281800 25004KT P6SM SHRA VCTS BKN050CB
     FM282300 19004KT P6SM SHRA VCTS OVC050CB
     FM290200 08004KT P6SM SHRA VCTS OVC050CB
     FM290600 VRB03KT 3SM SHRA VCTS OVC060CB=

USA.gov is the U.S. government's official web portal to all federal, state and local government web resources and services.